createdAt,value
2023-06-29T00:00:25.467Z,3.05
2023-06-29T00:02:54.229Z,3.42
2023-06-29T00:05:22.859Z,2.70
2023-06-29T00:07:50.428Z,3.10
2023-06-29T00:10:18.273Z,2.97
2023-06-29T00:12:45.525Z,2.95
2023-06-29T00:15:12.775Z,3.53
2023-06-29T00:17:40.128Z,3.28
2023-06-29T00:20:11.694Z,2.88
2023-06-29T00:22:41.429Z,2.90
2023-06-29T00:25:11.407Z,2.72
2023-06-29T00:27:38.679Z,2.95
2023-06-29T00:30:06.295Z,3.00
2023-06-29T00:32:33.706Z,2.88
2023-06-29T00:35:00.973Z,2.60
2023-06-29T00:37:28.216Z,2.90
2023-06-29T00:39:55.466Z,3.00
2023-06-29T00:42:22.718Z,2.97
2023-06-29T00:44:49.963Z,3.15
2023-06-29T00:47:17.183Z,3.25
2023-06-29T00:49:44.407Z,2.97
2023-06-29T00:52:11.749Z,2.92
2023-06-29T00:54:40.399Z,3.03
2023-06-29T00:57:09.863Z,3.00
2023-06-29T00:59:37.562Z,3.03
2023-06-29T01:02:05.117Z,3.10
2023-06-29T01:04:34.516Z,3.42
2023-06-29T01:07:08.132Z,3.20
2023-06-29T01:09:35.775Z,3.17
2023-06-29T01:12:04.115Z,3.33
2023-06-29T01:14:32.623Z,3.15
2023-06-29T01:17:00.261Z,3.50
2023-06-29T01:19:31.319Z,3.63
2023-06-29T01:22:05.580Z,3.58
2023-06-29T01:24:42.464Z,3.50
2023-06-29T01:27:10.122Z,3.20
2023-06-29T01:29:38.003Z,2.97
2023-06-29T01:32:05.792Z,3.40
2023-06-29T01:34:33.410Z,3.30
2023-06-29T01:37:10.449Z,2.90
2023-06-29T01:39:41.478Z,3.65
2023-06-29T01:42:09.156Z,3.55
2023-06-29T01:44:36.371Z,3.95
2023-06-29T01:47:03.748Z,2.90
2023-06-29T01:49:31.006Z,3.72
2023-06-29T01:51:58.403Z,3.53
2023-06-29T01:54:25.604Z,3.53
2023-06-29T01:56:52.792Z,3.33
2023-06-29T01:59:20.042Z,3.45
2023-06-29T02:01:47.349Z,4.13
2023-06-29T02:04:14.568Z,3.13
2023-06-29T02:06:41.810Z,3.90
2023-06-29T02:09:09.017Z,3.17
2023-06-29T02:11:36.222Z,3.63
2023-06-29T02:14:03.444Z,3.33
2023-06-29T02:16:30.743Z,3.30
2023-06-29T02:18:58.034Z,3.50
2023-06-29T02:21:25.447Z,3.53
2023-06-29T02:23:52.632Z,3.30
2023-06-29T02:26:19.792Z,3.70
2023-06-29T02:28:47.635Z,3.50
2023-06-29T02:31:14.867Z,3.75
2023-06-29T02:33:42.064Z,3.28
2023-06-29T02:36:10.526Z,3.50
2023-06-29T02:38:37.776Z,3.58
2023-06-29T02:41:04.952Z,3.30
2023-06-29T02:43:32.254Z,3.85
2023-06-29T02:45:59.481Z,3.90
2023-06-29T02:48:26.799Z,3.38
2023-06-29T02:50:54.355Z,3.90
2023-06-29T02:53:21.586Z,3.60
2023-06-29T02:55:48.816Z,3.25
2023-06-29T02:58:16.160Z,3.80
2023-06-29T03:00:43.515Z,3.70
2023-06-29T03:03:11.002Z,3.50
2023-06-29T03:05:38.348Z,3.83
2023-06-29T03:08:05.862Z,3.53
2023-06-29T03:10:33.116Z,3.33
2023-06-29T03:13:00.382Z,3.60
2023-06-29T03:15:27.662Z,3.45
2023-06-29T03:17:54.938Z,3.60
2023-06-29T03:20:22.286Z,3.40
2023-06-29T03:22:49.551Z,3.75
2023-06-29T03:25:16.818Z,3.75
2023-06-29T03:27:44.085Z,3.50
2023-06-29T03:30:11.645Z,4.25
2023-06-29T03:32:38.940Z,4.32
2023-06-29T03:35:08.472Z,3.85
2023-06-29T03:37:35.742Z,3.80
2023-06-29T03:40:02.939Z,3.65
2023-06-29T03:42:30.142Z,3.90
2023-06-29T03:44:57.346Z,4.15
2023-06-29T03:47:24.714Z,3.58
2023-06-29T03:49:52.085Z,3.80
2023-06-29T03:52:19.295Z,3.60
2023-06-29T03:54:46.638Z,3.88
2023-06-29T03:57:13.842Z,3.90
2023-06-29T03:59:41.077Z,4.15
2023-06-29T04:02:10.516Z,4.38
2023-06-29T04:04:39.441Z,3.70
2023-06-29T04:07:06.953Z,5.07
2023-06-29T04:09:34.197Z,4.50
2023-06-29T04:12:01.453Z,4.28
2023-06-29T04:14:28.627Z,4.10
2023-06-29T04:16:55.951Z,4.20
2023-06-29T04:19:23.236Z,4.25
2023-06-29T04:21:50.423Z,3.72
2023-06-29T04:24:18.300Z,4.07
2023-06-29T04:26:45.498Z,3.30
2023-06-29T04:29:12.774Z,2.90
2023-06-29T04:31:39.965Z,3.35
2023-06-29T04:34:07.154Z,3.22
2023-06-29T04:36:34.397Z,3.22
2023-06-29T04:39:02.206Z,3.00
2023-06-29T04:41:32.632Z,3.13
2023-06-29T04:44:04.280Z,2.95
2023-06-29T04:46:32.257Z,3.05
2023-06-29T04:49:06.589Z,3.17
2023-06-29T04:51:37.137Z,3.00
2023-06-29T04:54:06.572Z,3.05
2023-06-29T04:56:33.914Z,2.92
2023-06-29T04:59:01.113Z,3.42
2023-06-29T05:01:28.318Z,3.10
2023-06-29T05:03:55.765Z,3.42
2023-06-29T05:06:23.056Z,2.65
2023-06-29T05:08:50.253Z,2.42
2023-06-29T05:11:17.570Z,2.47
2023-06-29T05:13:44.751Z,2.38
2023-06-29T05:16:13.469Z,2.47
2023-06-29T05:18:40.639Z,2.47
2023-06-29T05:21:08.764Z,2.30
2023-06-29T05:23:36.046Z,2.50
2023-06-29T05:26:03.254Z,2.30
2023-06-29T05:28:30.470Z,3.10
2023-06-29T05:30:57.718Z,2.20
2023-06-29T05:33:25.336Z,2.28
2023-06-29T05:35:52.576Z,2.40
2023-06-29T05:38:19.749Z,2.20
2023-06-29T05:40:47.330Z,2.13
2023-06-29T05:43:14.582Z,2.55
2023-06-29T05:45:41.800Z,2.00
2023-06-29T05:48:09.092Z,2.15
2023-06-29T05:50:36.304Z,2.17
2023-06-29T05:53:05.073Z,2.13
2023-06-29T05:55:33.090Z,2.50
2023-06-29T05:58:00.370Z,2.05
2023-06-29T06:00:28.018Z,2.00
2023-06-29T06:02:55.278Z,2.00
2023-06-29T06:05:22.578Z,2.15
2023-06-29T06:07:49.886Z,2.35
2023-06-29T06:10:17.173Z,1.90
2023-06-29T06:12:44.356Z,2.30
2023-06-29T06:15:12.812Z,2.10
2023-06-29T06:17:40.170Z,1.95
2023-06-29T06:20:07.963Z,1.92
2023-06-29T06:22:35.150Z,1.80
2023-06-29T06:25:02.348Z,1.80
2023-06-29T06:27:29.579Z,1.90
2023-06-29T06:29:56.789Z,2.10
2023-06-29T06:32:25.704Z,2.03
2023-06-29T06:34:53.325Z,2.45
2023-06-29T06:37:21.080Z,1.98
2023-06-29T06:39:48.327Z,1.92
2023-06-29T06:42:15.573Z,2.35
2023-06-29T06:44:57.074Z,1.77
2023-06-29T06:47:24.367Z,1.90
2023-06-29T06:49:51.549Z,2.10
2023-06-29T06:52:18.802Z,2.55
2023-06-29T06:54:46.248Z,1.95
2023-06-29T06:57:13.930Z,1.67
2023-06-29T06:59:41.159Z,1.80
2023-06-29T07:02:08.500Z,1.90
2023-06-29T07:04:35.861Z,1.70
2023-06-29T07:07:03.117Z,1.67
2023-06-29T07:09:31.063Z,1.45
2023-06-29T07:11:59.552Z,2.90
2023-06-29T07:14:26.957Z,1.90
2023-06-29T07:16:54.310Z,1.80
2023-06-29T07:24:22.537Z,1.77
2023-06-29T07:26:49.763Z,1.40
2023-06-29T07:29:17.300Z,2.03
2023-06-29T07:31:44.575Z,1.67
2023-06-29T07:34:11.850Z,1.67
2023-06-29T07:36:39.130Z,1.65
2023-06-29T07:39:06.368Z,1.60
2023-06-29T07:41:33.608Z,1.40
2023-06-29T07:44:01.527Z,1.88
2023-06-29T07:46:28.738Z,1.70
2023-06-29T07:48:56.511Z,1.60
2023-06-29T07:51:24.069Z,1.73
2023-06-29T07:53:51.578Z,1.80
2023-06-29T07:56:19.868Z,1.55
2023-06-29T07:58:47.855Z,1.75
2023-06-29T08:01:15.358Z,1.55
2023-06-29T08:04:01.476Z,2.00
2023-06-29T08:08:59.528Z,1.63
2023-06-29T08:11:26.977Z,1.60
2023-06-29T08:13:54.120Z,1.80
2023-06-29T08:16:22.714Z,1.40
2023-06-29T08:18:50.030Z,1.67
2023-06-29T08:21:17.395Z,1.38
2023-06-29T08:23:44.717Z,1.75
2023-06-29T08:26:11.868Z,1.70
2023-06-29T08:28:39.195Z,1.77
2023-06-29T08:31:07.789Z,1.77
2023-06-29T08:33:35.185Z,1.80
2023-06-29T08:36:02.572Z,1.88
2023-06-29T08:38:29.786Z,1.90
2023-06-29T08:40:59.906Z,1.85
2023-06-29T08:43:27.132Z,1.80
2023-06-29T08:45:54.416Z,1.75
2023-06-29T08:48:22.325Z,1.63
2023-06-29T08:50:53.381Z,1.75
2023-06-29T08:53:21.932Z,1.80
2023-06-29T08:55:50.097Z,1.95
2023-06-29T08:58:17.592Z,1.67
2023-06-29T09:00:45.400Z,2.10
2023-06-29T09:03:13.879Z,1.70
2023-06-29T09:05:41.289Z,1.77
2023-06-29T09:08:09.023Z,2.20
2023-06-29T09:10:38.286Z,2.15
2023-06-29T09:13:06.764Z,1.70
2023-06-29T09:15:34.050Z,2.00
2023-06-29T09:18:01.660Z,2.03
2023-06-29T09:20:44.598Z,2.13
2023-06-29T09:23:14.901Z,1.83
2023-06-29T09:25:42.721Z,1.63
2023-06-29T09:28:10.031Z,1.90
2023-06-29T09:30:41.450Z,1.90
2023-06-29T09:33:08.873Z,1.60
2023-06-29T09:35:36.517Z,1.83
2023-06-29T09:38:04.166Z,1.67
2023-06-29T09:40:31.501Z,2.30
2023-06-29T09:42:59.178Z,2.00
2023-06-29T09:45:29.110Z,1.90
2023-06-29T09:50:26.846Z,1.50
2023-06-29T09:52:55.710Z,2.08
2023-06-29T09:55:30.047Z,1.70
2023-06-29T09:57:57.817Z,1.67
2023-06-29T10:00:25.704Z,1.83
2023-06-29T10:02:53.694Z,1.75
2023-06-29T10:05:21.554Z,1.90
2023-06-29T10:07:48.964Z,1.60
2023-06-29T10:10:16.925Z,1.88
2023-06-29T10:12:44.097Z,1.75
2023-06-29T10:15:13.888Z,1.73
2023-06-29T10:17:59.843Z,1.50
2023-06-29T10:20:28.904Z,1.63
2023-06-29T10:22:57.589Z,1.90
2023-06-29T10:25:25.531Z,1.80
2023-06-29T10:27:56.086Z,1.88
2023-06-29T10:30:23.336Z,1.70
2023-06-29T10:32:51.533Z,2.55
2023-06-29T10:35:19.243Z,1.90
2023-06-29T10:37:47.937Z,1.90
2023-06-29T10:40:19.082Z,1.95
2023-06-29T10:42:53.081Z,1.90
2023-06-29T10:45:20.315Z,1.85
2023-06-29T10:47:48.100Z,1.70
2023-06-29T10:50:15.377Z,1.90
2023-06-29T10:52:44.309Z,1.75
2023-06-29T10:55:24.456Z,1.90
2023-06-29T10:58:00.220Z,1.58
2023-06-29T11:00:28.001Z,1.92
2023-06-29T11:02:56.292Z,1.88
2023-06-29T11:05:24.987Z,1.75
2023-06-29T11:07:53.377Z,1.85
2023-06-29T11:10:23.979Z,1.80
2023-06-29T11:12:51.695Z,1.95
2023-06-29T11:15:22.052Z,1.70
2023-06-29T11:17:53.044Z,2.05
2023-06-29T11:20:21.963Z,1.92
2023-06-29T11:22:52.527Z,1.65
2023-06-29T11:25:19.791Z,2.05
2023-06-29T11:27:47.478Z,2.20
2023-06-29T11:30:14.797Z,2.00
2023-06-29T11:32:42.785Z,1.77
2023-06-29T11:35:11.413Z,2.70
2023-06-29T11:37:41.714Z,1.77
2023-06-29T11:40:19.335Z,2.10
2023-06-29T11:42:46.694Z,2.20
2023-06-29T11:45:14.762Z,1.80
2023-06-29T11:47:43.133Z,2.15
2023-06-29T11:50:11.386Z,2.10
2023-06-29T11:52:40.358Z,2.53
2023-06-29T11:55:09.042Z,2.50
2023-06-29T11:57:37.133Z,2.25
2023-06-29T12:00:07.616Z,2.10
2023-06-29T12:02:34.996Z,2.60
2023-06-29T12:05:04.897Z,2.63
2023-06-29T12:07:39.287Z,2.90
2023-06-29T12:10:10.901Z,3.20
2023-06-29T12:12:38.771Z,3.30
2023-06-29T12:15:13.329Z,3.33
2023-06-29T12:20:17.475Z,2.70
2023-06-29T12:22:45.919Z,3.78
2023-06-29T12:25:13.979Z,2.35
2023-06-29T12:27:42.453Z,2.90
2023-06-29T12:30:11.107Z,2.78
2023-06-29T12:32:38.399Z,3.20
2023-06-29T12:35:05.842Z,3.20
2023-06-29T12:37:33.128Z,3.22
2023-06-29T12:40:00.323Z,3.50
2023-06-29T12:42:27.667Z,3.30
2023-06-29T12:44:54.876Z,3.47
2023-06-29T12:47:22.651Z,3.22
2023-06-29T12:49:51.706Z,3.60
2023-06-29T12:52:21.980Z,3.67
2023-06-29T12:54:49.164Z,4.00
2023-06-29T12:57:16.345Z,4.72
2023-06-29T12:59:43.681Z,4.80
2023-06-29T13:02:11.730Z,4.05
2023-06-29T13:04:41.816Z,4.18
2023-06-29T13:07:09.269Z,3.50
2023-06-29T13:09:36.599Z,3.80
2023-06-29T13:12:04.770Z,3.63
2023-06-29T13:14:32.849Z,3.50
2023-06-29T13:17:00.452Z,3.60
2023-06-29T13:19:28.456Z,3.88
2023-06-29T13:21:56.521Z,3.83
2023-06-29T13:24:24.098Z,4.10
2023-06-29T13:26:51.403Z,3.80
2023-06-29T13:29:22.524Z,4.38
2023-06-29T13:31:50.144Z,4.35
2023-06-29T13:34:17.715Z,4.38
2023-06-29T13:36:47.441Z,4.75
2023-06-29T13:39:14.983Z,4.50
2023-06-29T13:41:43.614Z,4.60
2023-06-29T13:44:11.689Z,4.65
2023-06-29T13:46:43.678Z,4.50
2023-06-29T13:49:11.347Z,3.00
2023-06-29T13:51:39.190Z,2.67
2023-06-29T13:54:07.794Z,2.63
2023-06-29T13:56:38.607Z,2.55
2023-06-29T13:59:10.524Z,2.65
2023-06-29T14:01:39.414Z,2.77
2023-06-29T14:04:07.435Z,2.88
2023-06-29T14:06:37.603Z,2.95
2023-06-29T14:09:06.055Z,3.13
2023-06-29T14:11:33.647Z,2.45
2023-06-29T14:14:00.915Z,2.97
2023-06-29T14:16:28.642Z,3.00
2023-06-29T14:18:56.120Z,3.20
2023-06-29T14:21:23.478Z,3.22
2023-06-29T14:23:50.690Z,3.22
2023-06-29T14:26:17.988Z,3.60
2023-06-29T14:28:45.403Z,3.47
2023-06-29T14:31:12.911Z,3.65
2023-06-29T14:33:40.402Z,3.20
2023-06-29T14:36:07.686Z,3.72
2023-06-29T14:38:35.011Z,3.67
2023-06-29T14:41:03.458Z,4.40
2023-06-29T14:43:30.911Z,4.25
2023-06-29T14:45:58.853Z,3.88
2023-06-29T14:48:27.031Z,3.80
2023-06-29T14:50:54.675Z,3.42
2023-06-29T14:53:22.484Z,4.15
2023-06-29T14:55:49.834Z,3.95
2023-06-29T14:58:17.279Z,4.38
2023-06-29T15:00:44.633Z,4.00
2023-06-29T15:03:12.340Z,3.90
2023-06-29T15:05:39.641Z,3.30
2023-06-29T15:08:06.892Z,3.90
2023-06-29T15:10:34.109Z,4.07
2023-06-29T15:13:01.354Z,4.30
2023-06-29T15:15:28.591Z,3.92
2023-06-29T15:17:55.899Z,3.80
2023-06-29T15:20:23.219Z,3.95
2023-06-29T15:22:50.482Z,3.83
2023-06-29T15:25:17.747Z,3.90
2023-06-29T15:27:44.963Z,3.75
2023-06-29T15:30:14.133Z,3.78
2023-06-29T15:32:41.492Z,3.92
2023-06-29T15:35:10.058Z,3.53
2023-06-29T15:37:37.281Z,3.60
2023-06-29T15:40:05.016Z,3.65
2023-06-29T15:42:33.257Z,3.83
2023-06-29T15:45:01.980Z,3.63
2023-06-29T15:47:29.369Z,3.22
2023-06-29T15:49:56.893Z,3.88
2023-06-29T15:52:24.304Z,3.40
2023-06-29T15:54:51.550Z,3.75
2023-06-29T15:57:18.744Z,3.58
2023-06-29T15:59:45.969Z,3.67
2023-06-29T16:02:13.191Z,3.58
2023-06-29T16:04:40.376Z,3.70
2023-06-29T16:07:11.046Z,3.90
2023-06-29T16:09:38.587Z,3.83
2023-06-29T16:12:06.711Z,3.63
2023-06-29T16:14:34.152Z,3.90
2023-06-29T16:17:03.578Z,3.50
2023-06-29T16:19:31.205Z,3.83
2023-06-29T16:24:55.754Z,3.72
2023-06-29T16:27:23.042Z,3.70
2023-06-29T16:29:50.246Z,3.47
2023-06-29T16:32:17.549Z,3.67
2023-06-29T16:34:44.849Z,3.80
2023-06-29T16:37:12.083Z,3.65
2023-06-29T16:39:39.326Z,3.83
2023-06-29T16:42:06.867Z,3.55
2023-06-29T16:44:34.113Z,3.80
2023-06-29T16:47:02.182Z,3.28
2023-06-29T16:49:29.461Z,3.20
2023-06-29T16:51:56.627Z,3.38
2023-06-29T16:54:23.852Z,3.58
2023-06-29T16:56:51.160Z,3.38
2023-06-29T16:59:18.374Z,3.63
2023-06-29T17:01:45.607Z,3.58
2023-06-29T17:04:12.817Z,3.75
2023-06-29T17:06:40.087Z,4.50
2023-06-29T17:09:07.287Z,3.75
2023-06-29T17:11:34.529Z,3.30
2023-06-29T17:14:01.948Z,4.00
2023-06-29T17:16:29.357Z,4.30
2023-06-29T17:19:01.412Z,3.63
2023-06-29T17:24:06.731Z,3.53
2023-06-29T17:26:34.015Z,3.53
2023-06-29T17:29:01.286Z,3.40
2023-06-29T17:31:29.189Z,3.83
2023-06-29T17:34:23.024Z,3.55
2023-06-29T17:36:53.286Z,3.78
2023-06-29T17:39:23.543Z,3.22
2023-06-29T17:41:51.568Z,3.70
2023-06-29T17:44:20.307Z,3.90
2023-06-29T17:46:47.527Z,3.08
2023-06-29T17:49:14.795Z,3.60
2023-06-29T17:51:41.955Z,3.25
2023-06-29T17:54:09.182Z,3.42
2023-06-29T17:56:36.432Z,3.88
2023-06-29T17:59:03.629Z,3.40
2023-06-29T18:01:30.957Z,3.83
2023-06-29T18:03:58.389Z,3.65
2023-06-29T18:06:25.802Z,2.95
2023-06-29T18:08:52.989Z,3.50
2023-06-29T18:11:20.211Z,3.00
2023-06-29T18:13:47.371Z,3.20
2023-06-29T18:16:14.604Z,3.33
2023-06-29T18:18:41.847Z,3.70
2023-06-29T18:21:09.205Z,3.22
2023-06-29T18:23:36.474Z,3.10
2023-06-29T18:26:03.717Z,3.25
2023-06-29T18:28:31.212Z,3.83
2023-06-29T18:30:58.384Z,3.28
2023-06-29T18:33:25.650Z,3.25
2023-06-29T18:35:52.800Z,3.50
2023-06-29T18:38:19.986Z,4.50
2023-06-29T18:40:47.184Z,4.10
2023-06-29T18:43:14.380Z,4.35
2023-06-29T18:45:42.035Z,4.55
2023-06-29T18:48:09.401Z,4.18
2023-06-29T18:50:36.630Z,4.18
2023-06-29T18:53:03.985Z,3.80
2023-06-29T18:55:34.244Z,4.00
2023-06-29T18:58:01.514Z,3.80
2023-06-29T19:00:28.721Z,4.30
2023-06-29T19:02:56.076Z,3.88
2023-06-29T19:05:23.461Z,4.05
2023-06-29T19:07:53.087Z,4.25
2023-06-29T19:10:20.419Z,3.58
2023-06-29T19:12:47.691Z,3.92
2023-06-29T19:15:14.933Z,4.10
2023-06-29T19:17:42.383Z,3.80
2023-06-29T19:20:10.453Z,4.10
2023-06-29T19:22:37.690Z,3.83
2023-06-29T19:25:05.326Z,3.85
2023-06-29T19:27:32.699Z,4.10
2023-06-29T19:30:00.159Z,3.40
2023-06-29T19:32:27.398Z,3.50
2023-06-29T19:34:54.656Z,4.00
2023-06-29T19:37:25.146Z,3.88
2023-06-29T19:39:52.515Z,3.67
2023-06-29T19:42:19.708Z,3.90
2023-06-29T19:44:46.993Z,3.63
2023-06-29T19:47:14.288Z,3.70
2023-06-29T19:49:41.544Z,4.00
2023-06-29T19:52:09.646Z,3.40
2023-06-29T19:54:36.937Z,3.40
2023-06-29T19:57:04.355Z,3.67
2023-06-29T19:59:31.904Z,3.70
2023-06-29T20:01:59.185Z,4.07
2023-06-29T20:04:26.604Z,4.00
2023-06-29T20:06:54.062Z,3.75
2023-06-29T20:09:21.318Z,3.78
2023-06-29T20:11:48.548Z,3.60
2023-06-29T20:14:15.825Z,3.63
2023-06-29T20:16:43.147Z,3.97
2023-06-29T20:19:10.518Z,3.47
2023-06-29T20:21:37.827Z,3.40
2023-06-29T20:24:05.117Z,3.80
2023-06-29T20:26:33.396Z,3.58
2023-06-29T20:29:00.902Z,3.60
2023-06-29T20:31:28.249Z,3.90
2023-06-29T20:33:55.460Z,3.53
2023-06-29T20:36:22.773Z,3.63
2023-06-29T20:38:50.016Z,3.30
2023-06-29T20:41:17.239Z,2.88
2023-06-29T20:43:47.583Z,3.97
2023-06-29T20:46:19.203Z,3.25
2023-06-29T20:48:46.937Z,3.37
2023-06-29T20:51:18.118Z,3.50
2023-06-29T20:53:45.756Z,3.60
2023-06-29T20:56:12.984Z,3.63
2023-06-29T20:58:40.250Z,3.83
2023-06-29T21:01:07.673Z,3.42
2023-06-29T21:03:35.340Z,3.65
2023-06-29T21:06:02.928Z,4.07
2023-06-29T21:08:30.429Z,3.88
2023-06-29T21:10:57.767Z,3.80
2023-06-29T21:13:25.320Z,4.30
2023-06-29T21:15:52.737Z,3.70
2023-06-29T21:18:20.192Z,3.60
2023-06-29T21:20:47.527Z,3.47
2023-06-29T21:23:14.787Z,3.92
2023-06-29T21:25:42.200Z,3.45
2023-06-29T21:28:11.929Z,4.10
2023-06-29T21:30:39.467Z,3.75
2023-06-29T21:33:07.040Z,4.05
2023-06-29T21:35:35.350Z,4.32
2023-06-29T21:38:02.763Z,5.13
2023-06-29T21:40:33.029Z,4.82
2023-06-29T21:43:00.220Z,4.50
2023-06-29T21:45:28.214Z,4.72
2023-06-29T21:47:56.064Z,4.57
2023-06-29T21:50:23.350Z,4.35
2023-06-29T21:52:50.594Z,5.07
2023-06-29T21:55:18.497Z,4.40
2023-06-29T21:57:45.676Z,4.03
2023-06-29T22:00:13.764Z,4.43
2023-06-29T22:02:41.239Z,4.38
2023-06-29T22:05:08.527Z,4.30
2023-06-29T22:07:35.797Z,4.70
2023-06-29T22:10:03.538Z,3.95
2023-06-29T22:12:30.901Z,4.05
2023-06-29T22:14:58.873Z,4.03
2023-06-29T22:17:26.247Z,3.83
2023-06-29T22:20:12.399Z,3.63
2023-06-29T22:22:39.962Z,4.65
2023-06-29T22:25:07.812Z,4.63
2023-06-29T22:27:35.242Z,4.50
2023-06-29T22:30:02.581Z,4.53
2023-06-29T22:32:30.041Z,4.07
2023-06-29T22:34:57.353Z,4.45
2023-06-29T22:37:24.570Z,4.60
2023-06-29T22:39:51.983Z,4.50
2023-06-29T22:42:19.600Z,4.13
2023-06-29T22:44:46.795Z,4.10
2023-06-29T22:47:14.340Z,4.45
2023-06-29T22:49:43.481Z,4.43
2023-06-29T22:52:11.023Z,3.95
2023-06-29T22:54:38.284Z,3.90
2023-06-29T22:57:05.637Z,4.18
2023-06-29T22:59:32.946Z,4.47
2023-06-29T23:02:00.195Z,4.50
2023-06-29T23:04:27.446Z,4.10
2023-06-29T23:06:54.799Z,4.15
2023-06-29T23:09:23.358Z,4.38
2023-06-29T23:11:50.656Z,3.90
2023-06-29T23:14:18.874Z,4.22
2023-06-29T23:16:47.320Z,4.72
2023-06-29T23:19:14.874Z,3.95
2023-06-29T23:21:42.230Z,4.57
2023-06-29T23:24:14.519Z,4.47
2023-06-29T23:26:42.304Z,4.55
2023-06-29T23:29:09.523Z,4.82
2023-06-29T23:31:36.783Z,4.47
2023-06-29T23:34:04.470Z,4.30
2023-06-29T23:36:31.821Z,4.20
2023-06-29T23:38:59.750Z,4.68
2023-06-29T23:41:30.751Z,4.70
2023-06-29T23:44:07.554Z,4.20
2023-06-29T23:46:41.916Z,4.60
2023-06-29T23:49:10.263Z,4.18
2023-06-29T23:51:37.539Z,4.53
2023-06-29T23:54:06.478Z,4.38
2023-06-29T23:56:33.706Z,4.40
2023-06-29T23:59:01.735Z,4.32
